createdAt,value
2019-03-21T00:00:32.048Z,8.20
2019-03-21T00:03:01.091Z,8.10
2019-03-21T00:05:31.898Z,8.10
2019-03-21T00:08:01.017Z,8.10
2019-03-21T00:10:33.161Z,8.20
2019-03-21T00:13:02.216Z,8.10
2019-03-21T00:15:49.391Z,8.10
2019-03-21T00:18:18.436Z,8.00
2019-03-21T00:20:47.504Z,8.00
2019-03-21T00:23:16.566Z,8.00
2019-03-21T00:25:45.616Z,8.00
2019-03-21T00:28:14.741Z,7.90
2019-03-21T00:30:43.807Z,7.80
2019-03-21T00:33:12.873Z,7.70
2019-03-21T00:35:42.005Z,7.70
2019-03-21T00:38:11.052Z,7.80
2019-03-21T00:40:44.208Z,7.80
2019-03-21T00:43:13.774Z,7.80
2019-03-21T00:45:42.834Z,7.70
2019-03-21T00:48:14.935Z,7.60
2019-03-21T00:50:44.065Z,7.50
2019-03-21T00:53:13.115Z,7.50
2019-03-21T00:55:51.036Z,7.50
2019-03-21T00:58:20.108Z,7.60
2019-03-21T01:00:52.405Z,7.50
2019-03-21T01:03:21.446Z,7.50
2019-03-21T01:05:50.556Z,7.50
2019-03-21T01:08:19.612Z,7.60
2019-03-21T01:10:49.839Z,7.60
2019-03-21T01:13:18.944Z,7.70
2019-03-21T01:15:48.006Z,7.60
2019-03-21T01:18:17.087Z,7.70
2019-03-21T01:20:46.211Z,7.80
2019-03-21T01:23:15.341Z,7.80
2019-03-21T01:25:50.362Z,7.90
2019-03-21T01:28:19.412Z,7.90
2019-03-21T01:30:48.474Z,7.90
2019-03-21T01:33:17.537Z,7.90
2019-03-21T01:35:46.620Z,7.90
2019-03-21T01:38:15.676Z,7.80
2019-03-21T01:40:47.970Z,7.80
2019-03-21T01:43:17.410Z,7.80
2019-03-21T01:45:46.472Z,7.70
2019-03-21T01:48:15.544Z,7.60
2019-03-21T01:50:44.600Z,7.50
2019-03-21T01:53:13.684Z,7.50
2019-03-21T01:55:42.747Z,7.30
2019-03-21T01:58:11.812Z,7.30
2019-03-21T02:00:42.501Z,7.20
2019-03-21T02:03:11.560Z,7.20
2019-03-21T02:05:40.620Z,7.20
2019-03-21T02:08:09.695Z,7.10
2019-03-21T02:10:38.755Z,7.00
2019-03-21T02:13:07.820Z,7.00
2019-03-21T02:15:36.875Z,7.00
2019-03-21T02:18:06.283Z,7.00
2019-03-21T02:20:35.407Z,6.90
2019-03-21T02:23:04.460Z,6.90
2019-03-21T02:25:35.542Z,6.90
2019-03-21T02:28:05.156Z,6.90
2019-03-21T02:30:39.538Z,6.90
2019-03-21T02:33:08.840Z,6.90
2019-03-21T02:35:37.316Z,6.90
2019-03-21T02:38:06.374Z,6.90
2019-03-21T02:40:35.430Z,7.00
2019-03-21T02:43:04.501Z,7.00
2019-03-21T02:45:33.555Z,7.00
2019-03-21T02:48:02.688Z,7.10
2019-03-21T02:50:42.435Z,7.10
2019-03-21T02:53:11.505Z,7.00
2019-03-21T02:55:40.626Z,7.00
2019-03-21T02:58:09.693Z,7.10
2019-03-21T03:00:42.762Z,7.20
2019-03-21T03:03:11.838Z,7.20
2019-03-21T03:05:40.865Z,7.20
2019-03-21T03:08:10.445Z,7.20
2019-03-21T03:10:59.369Z,7.30
2019-03-21T03:13:28.437Z,7.30
2019-03-21T03:15:57.495Z,7.30
2019-03-21T03:18:26.692Z,7.30
2019-03-21T03:20:55.806Z,7.30
2019-03-21T03:23:24.860Z,7.30
2019-03-21T03:25:53.926Z,7.30
2019-03-21T03:28:25.496Z,7.30
2019-03-21T03:30:58.616Z,7.40
2019-03-21T03:33:28.161Z,7.40
2019-03-21T03:35:57.252Z,7.40
2019-03-21T03:38:26.396Z,7.40
2019-03-21T03:41:13.123Z,7.30
2019-03-21T03:43:42.192Z,7.40
2019-03-21T03:46:11.232Z,7.40
2019-03-21T03:48:40.304Z,7.40
2019-03-21T03:51:09.423Z,7.40
2019-03-21T03:53:42.052Z,7.40
2019-03-21T03:56:09.474Z,7.40
2019-03-21T03:58:47.383Z,7.40
2019-03-21T04:01:16.492Z,7.50
2019-03-21T04:03:45.553Z,7.50
2019-03-21T04:06:14.604Z,7.50
2019-03-21T04:08:43.736Z,7.50
2019-03-21T04:11:12.777Z,7.50
2019-03-21T04:13:41.832Z,7.50
2019-03-21T04:16:10.893Z,7.50
2019-03-21T04:18:39.939Z,7.50
2019-03-21T04:21:11.945Z,7.50
2019-03-21T04:23:41.000Z,7.50
2019-03-21T04:26:31.456Z,7.50
2019-03-21T04:29:00.571Z,7.50
2019-03-21T04:31:29.638Z,7.60
2019-03-21T04:34:02.137Z,7.70
2019-03-21T04:36:31.187Z,7.60
2019-03-21T04:39:00.241Z,7.70
2019-03-21T04:41:29.301Z,7.60
2019-03-21T04:43:58.356Z,7.60
2019-03-21T04:46:27.413Z,7.70
2019-03-21T04:48:56.459Z,7.60
2019-03-21T04:51:25.508Z,7.70
2019-03-21T04:53:54.602Z,7.60
2019-03-21T04:56:23.812Z,7.60
2019-03-21T04:58:52.867Z,7.70
2019-03-21T05:01:21.913Z,7.60
2019-03-21T05:03:50.948Z,7.70
2019-03-21T05:06:20.025Z,7.60
2019-03-21T05:08:49.077Z,7.70
2019-03-21T05:11:18.136Z,7.70
2019-03-21T05:13:47.200Z,7.70
2019-03-21T05:16:16.248Z,7.70
2019-03-21T05:18:57.320Z,7.70
2019-03-21T05:21:26.386Z,7.80
2019-03-21T05:23:55.434Z,7.60
2019-03-21T05:26:24.494Z,7.60
2019-03-21T05:28:53.550Z,7.60
2019-03-21T05:31:36.392Z,7.60
2019-03-21T05:34:05.430Z,7.60
2019-03-21T05:36:34.495Z,7.50
2019-03-21T05:39:05.426Z,7.50
2019-03-21T05:41:34.492Z,7.40
2019-03-21T05:44:24.477Z,7.40
2019-03-21T05:46:53.602Z,7.50
2019-03-21T05:49:22.647Z,7.50
2019-03-21T05:51:51.730Z,7.50
2019-03-21T05:54:20.788Z,7.50
2019-03-21T05:56:49.848Z,7.50
2019-03-21T05:59:18.952Z,7.50
2019-03-21T06:01:48.050Z,7.50
2019-03-21T06:04:17.113Z,7.50
2019-03-21T06:06:55.308Z,7.40
2019-03-21T06:09:24.378Z,7.40
2019-03-21T06:11:56.523Z,7.50
2019-03-21T06:14:25.635Z,7.30
2019-03-21T06:16:54.696Z,7.30
2019-03-21T06:19:29.510Z,7.30
2019-03-21T06:22:04.175Z,7.40
2019-03-21T06:24:41.778Z,7.40
2019-03-21T06:27:26.875Z,7.40
2019-03-21T06:29:56.194Z,7.30
2019-03-21T06:32:26.409Z,7.30
2019-03-21T06:34:56.633Z,7.40
2019-03-21T06:37:28.457Z,7.30
2019-03-21T06:39:57.109Z,7.40
2019-03-21T06:42:26.336Z,7.30
2019-03-21T06:44:55.375Z,7.30
2019-03-21T06:47:24.444Z,7.30
2019-03-21T06:49:53.487Z,7.40
2019-03-21T06:52:22.538Z,7.50
2019-03-21T06:54:51.588Z,7.50
2019-03-21T06:57:20.644Z,7.50
2019-03-21T06:59:49.717Z,7.60
2019-03-21T07:02:19.139Z,7.50
2019-03-21T07:04:48.203Z,7.50
2019-03-21T07:07:17.249Z,7.60
2019-03-21T07:09:46.317Z,7.60
2019-03-21T07:12:15.914Z,7.70
2019-03-21T07:14:45.267Z,7.70
2019-03-21T07:17:14.329Z,7.70
2019-03-21T07:19:43.396Z,7.70
2019-03-21T07:22:12.622Z,7.70
2019-03-21T07:24:41.718Z,7.70
2019-03-21T07:27:10.788Z,7.70
2019-03-21T07:29:39.856Z,7.70
2019-03-21T07:32:09.013Z,7.70
2019-03-21T07:34:38.072Z,7.90
2019-03-21T07:37:07.131Z,7.90
2019-03-21T07:39:36.189Z,7.90
2019-03-21T07:42:05.244Z,8.10
2019-03-21T07:44:34.307Z,8.10
2019-03-21T07:47:12.139Z,8.10
2019-03-21T07:49:34.144Z,8.10
2019-03-21T07:52:03.206Z,8.00
2019-03-21T07:54:32.268Z,8.00
2019-03-21T07:57:01.454Z,8.00
2019-03-21T07:59:30.555Z,8.00
2019-03-21T08:01:59.615Z,8.10
2019-03-21T08:04:30.633Z,8.10
2019-03-21T08:06:59.689Z,8.10
2019-03-21T08:09:28.808Z,8.20
2019-03-21T08:11:57.891Z,8.30
2019-03-21T08:14:26.968Z,8.30
2019-03-21T08:16:55.998Z,8.30
2019-03-21T08:19:25.070Z,8.20
2019-03-21T08:21:54.123Z,8.30
2019-03-21T08:24:23.183Z,8.40
2019-03-21T08:26:52.244Z,8.40
2019-03-21T08:29:21.346Z,8.40
2019-03-21T08:31:50.442Z,8.40
2019-03-21T08:34:19.505Z,8.60
2019-03-21T08:36:48.556Z,8.70
2019-03-21T08:39:17.620Z,8.70
2019-03-21T08:41:46.663Z,8.80
2019-03-21T08:44:15.735Z,8.80
2019-03-21T08:46:44.795Z,8.80
2019-03-21T08:49:13.852Z,8.90
2019-03-21T08:51:42.901Z,8.90
2019-03-21T08:54:11.962Z,8.90
2019-03-21T08:56:41.008Z,8.90
2019-03-21T08:59:10.144Z,8.90
2019-03-21T09:01:39.196Z,8.90
2019-03-21T09:04:08.243Z,9.00
2019-03-21T09:06:37.303Z,9.10
2019-03-21T09:09:08.099Z,9.10
2019-03-21T09:11:37.156Z,9.30
2019-03-21T09:14:06.246Z,9.30
2019-03-21T09:16:35.300Z,9.10
2019-03-21T09:19:04.352Z,9.10
2019-03-21T09:21:33.410Z,9.10
2019-03-21T09:24:02.464Z,9.20
2019-03-21T09:26:31.583Z,9.20
2019-03-21T09:29:00.623Z,9.10
2019-03-21T09:31:29.687Z,9.20
2019-03-21T09:33:58.719Z,9.10
2019-03-21T09:36:27.787Z,9.00
2019-03-21T09:38:56.829Z,9.00
2019-03-21T09:41:25.894Z,8.90
2019-03-21T09:43:54.954Z,8.90
2019-03-21T09:46:24.019Z,8.80
2019-03-21T09:48:53.081Z,8.70
2019-03-21T09:51:30.467Z,8.60
2019-03-21T09:53:52.917Z,8.70
2019-03-21T09:56:23.955Z,8.80
2019-03-21T09:58:52.774Z,8.80
2019-03-21T10:01:21.837Z,8.70
2019-03-21T10:03:50.890Z,8.70
2019-03-21T10:06:19.956Z,8.70
2019-03-21T10:08:49.016Z,8.80
2019-03-21T10:11:18.074Z,8.80
2019-03-21T10:13:47.160Z,8.80
2019-03-21T10:16:16.207Z,8.70
2019-03-21T10:18:45.247Z,8.80
2019-03-21T10:21:14.297Z,9.00
2019-03-21T10:23:43.345Z,9.10
2019-03-21T10:26:12.408Z,9.10
2019-03-21T10:28:41.469Z,9.10
2019-03-21T10:31:10.536Z,9.20
2019-03-21T10:33:39.588Z,9.30
2019-03-21T10:36:09.324Z,9.20
2019-03-21T10:38:38.385Z,9.00
2019-03-21T10:41:07.440Z,8.90
2019-03-21T10:43:36.516Z,8.90
2019-03-21T10:46:05.551Z,8.90
2019-03-21T10:48:34.621Z,8.90
2019-03-21T10:51:03.676Z,8.90
2019-03-21T10:53:32.753Z,8.70
2019-03-21T10:56:01.853Z,8.80
2019-03-21T10:58:30.952Z,8.70
2019-03-21T11:01:00.061Z,8.80
2019-03-21T11:03:29.129Z,9.00
2019-03-21T11:05:58.172Z,9.00
2019-03-21T11:08:27.316Z,9.10
2019-03-21T11:10:56.376Z,9.10
2019-03-21T11:13:25.440Z,9.20
2019-03-21T11:15:54.494Z,9.40
2019-03-21T11:18:23.563Z,9.30
2019-03-21T11:20:52.627Z,9.30
2019-03-21T11:23:21.697Z,9.10
2019-03-21T11:25:50.802Z,9.00
2019-03-21T11:28:19.866Z,9.00
2019-03-21T11:30:48.926Z,9.00
2019-03-21T11:33:17.996Z,9.10
2019-03-21T11:35:47.040Z,9.10
2019-03-21T11:38:16.093Z,9.20
2019-03-21T11:40:45.152Z,9.20
2019-03-21T11:43:14.209Z,9.30
2019-03-21T11:45:43.327Z,9.30
2019-03-21T11:48:12.454Z,9.40
2019-03-21T11:50:41.581Z,9.40
2019-03-21T11:53:10.649Z,9.40
2019-03-21T11:55:39.721Z,9.40
2019-03-21T11:58:08.830Z,9.30
2019-03-21T12:00:43.784Z,9.50
2019-03-21T12:03:08.709Z,9.60
2019-03-21T12:05:37.776Z,9.40
2019-03-21T12:08:06.854Z,9.60
2019-03-21T12:10:35.909Z,9.70
2019-03-21T12:13:04.979Z,9.60
2019-03-21T12:15:34.047Z,9.50
2019-03-21T12:18:03.125Z,9.50
2019-03-21T12:20:33.812Z,9.50
2019-03-21T12:23:05.948Z,9.70
2019-03-21T12:25:35.004Z,9.70
2019-03-21T12:28:04.122Z,9.70
2019-03-21T12:30:38.489Z,9.70
2019-03-21T12:33:07.209Z,9.80
2019-03-21T12:35:36.272Z,9.90
2019-03-21T12:38:05.669Z,10.10
2019-03-21T12:40:34.732Z,10.00
2019-03-21T12:43:04.161Z,10.20
2019-03-21T12:45:33.309Z,10.20
2019-03-21T12:48:02.370Z,10.40
2019-03-21T12:50:31.512Z,10.20
2019-03-21T12:53:00.565Z,10.40
2019-03-21T12:55:29.632Z,10.70
2019-03-21T12:57:58.702Z,10.90
2019-03-21T13:00:33.597Z,11.20
2019-03-21T13:03:02.719Z,11.10
2019-03-21T13:05:32.368Z,11.20
2019-03-21T13:08:01.500Z,11.30
2019-03-21T13:10:30.560Z,11.30
2019-03-21T13:12:59.618Z,11.30
2019-03-21T13:15:30.076Z,11.30
2019-03-21T13:18:00.618Z,11.30
2019-03-21T13:20:29.964Z,11.30
2019-03-21T13:22:59.028Z,11.30
2019-03-21T13:25:28.097Z,11.30
2019-03-21T13:27:57.232Z,11.40
2019-03-21T13:30:26.296Z,11.00
2019-03-21T13:32:55.349Z,10.80
2019-03-21T13:35:32.517Z,10.80
2019-03-21T13:37:55.192Z,10.90
2019-03-21T13:40:24.245Z,10.70
2019-03-21T13:42:53.300Z,10.80
2019-03-21T13:45:22.443Z,10.90
2019-03-21T13:47:51.489Z,10.90
2019-03-21T13:50:20.559Z,11.00
2019-03-21T13:52:49.616Z,11.00
2019-03-21T13:55:18.680Z,11.00
2019-03-21T13:57:47.739Z,11.00
2019-03-21T14:00:19.426Z,10.80
2019-03-21T14:02:48.488Z,10.90
2019-03-21T14:05:17.544Z,11.00
2019-03-21T14:07:46.680Z,11.10
2019-03-21T14:10:16.181Z,11.00
2019-03-21T14:12:45.244Z,10.90
2019-03-21T14:15:16.721Z,10.80
2019-03-21T14:17:45.789Z,10.70
2019-03-21T14:20:15.685Z,10.60
2019-03-21T14:22:44.748Z,10.70
2019-03-21T14:25:14.331Z,10.60
2019-03-21T14:27:43.460Z,10.40
2019-03-21T14:30:15.117Z,10.30
2019-03-21T14:32:44.306Z,10.20
2019-03-21T14:35:13.797Z,10.20
2019-03-21T14:37:42.926Z,10.20
2019-03-21T14:40:13.917Z,10.20
2019-03-21T14:42:43.736Z,10.00
2019-03-21T14:45:14.868Z,10.10
2019-03-21T14:47:44.406Z,10.20
2019-03-21T14:50:15.098Z,10.20
2019-03-21T14:52:44.169Z,10.10
2019-03-21T14:55:15.566Z,10.00
2019-03-21T14:57:44.639Z,10.00
2019-03-21T15:00:18.666Z,9.90
2019-03-21T15:02:47.505Z,9.90
2019-03-21T15:05:16.724Z,9.90
2019-03-21T15:07:45.780Z,9.90
2019-03-21T15:10:19.212Z,9.90
2019-03-21T15:12:47.698Z,9.80
2019-03-21T15:15:17.211Z,9.90
2019-03-21T15:17:46.274Z,9.90
2019-03-21T15:20:18.192Z,10.00
2019-03-21T15:22:47.278Z,10.00
2019-03-21T15:25:16.775Z,9.90
2019-03-21T15:27:45.865Z,10.00
2019-03-21T15:30:17.267Z,9.90
2019-03-21T15:32:46.487Z,9.90
2019-03-21T15:35:17.884Z,9.90
2019-03-21T15:37:46.950Z,9.80
2019-03-21T15:40:16.570Z,9.70
2019-03-21T15:42:45.661Z,9.70
2019-03-21T15:45:22.632Z,9.60
2019-03-21T15:47:47.965Z,9.50
2019-03-21T15:50:29.069Z,9.40
2019-03-21T15:52:58.192Z,9.50
2019-03-21T15:55:27.304Z,9.60
2019-03-21T15:57:56.360Z,9.60
2019-03-21T16:00:42.008Z,9.60
2019-03-21T16:03:12.124Z,9.60
2019-03-21T16:05:41.340Z,9.50
2019-03-21T16:08:10.418Z,9.60
2019-03-21T16:10:39.536Z,9.60
2019-03-21T16:13:08.608Z,9.70
2019-03-21T16:15:37.652Z,9.80
2019-03-21T16:18:06.792Z,9.70
2019-03-21T16:20:35.843Z,9.70
2019-03-21T16:23:05.086Z,9.60
2019-03-21T16:25:34.151Z,9.80
2019-03-21T16:28:03.294Z,9.80
2019-03-21T16:30:32.366Z,9.60
2019-03-21T16:33:01.501Z,9.50
2019-03-21T16:35:30.594Z,9.40
2019-03-21T16:37:59.726Z,9.30
2019-03-21T16:40:28.789Z,9.30
2019-03-21T16:42:57.832Z,9.20
2019-03-21T16:45:26.883Z,9.40
2019-03-21T16:47:56.110Z,9.70
2019-03-21T16:50:25.176Z,9.90
2019-03-21T16:52:54.237Z,9.80
2019-03-21T16:55:23.369Z,9.90
2019-03-21T16:57:52.498Z,9.90
2019-03-21T17:00:21.623Z,9.80
2019-03-21T17:02:50.680Z,9.50
2019-03-21T17:05:23.310Z,9.40
2019-03-21T17:07:53.015Z,9.40
2019-03-21T17:10:22.117Z,9.50
2019-03-21T17:12:51.307Z,9.50
2019-03-21T17:15:20.368Z,9.60
2019-03-21T17:17:49.498Z,9.60
2019-03-21T17:20:18.568Z,9.50
2019-03-21T17:22:47.633Z,9.40
2019-03-21T17:25:16.769Z,9.30
2019-03-21T17:27:45.834Z,9.20
2019-03-21T17:30:15.830Z,9.20
2019-03-21T17:32:45.313Z,9.20
2019-03-21T17:35:15.104Z,9.10
2019-03-21T17:37:44.214Z,9.00
2019-03-21T17:40:14.564Z,9.10
2019-03-21T17:42:43.637Z,9.00
2019-03-21T17:45:14.926Z,9.00
2019-03-21T17:47:43.984Z,8.90
2019-03-21T17:50:15.132Z,8.80
2019-03-21T17:52:44.277Z,8.80
2019-03-21T17:55:13.615Z,8.70
2019-03-21T17:57:42.853Z,8.80
2019-03-21T18:00:22.073Z,8.70
2019-03-21T18:02:51.292Z,8.70
2019-03-21T18:05:26.400Z,8.70
2019-03-21T18:07:55.497Z,8.70
2019-03-21T18:10:34.263Z,8.80
2019-03-21T18:13:04.320Z,8.70
2019-03-21T18:15:33.563Z,8.70
2019-03-21T18:18:02.685Z,8.60
2019-03-21T18:20:31.812Z,8.50
2019-03-21T18:23:00.952Z,8.70
2019-03-21T18:25:30.024Z,8.70
2019-03-21T18:27:59.090Z,8.60
2019-03-21T18:30:28.162Z,8.60
2019-03-21T18:32:57.444Z,8.60
2019-03-21T18:35:26.598Z,8.60
2019-03-21T18:37:55.653Z,8.60
2019-03-21T18:40:24.890Z,8.60
2019-03-21T18:42:54.073Z,8.60
2019-03-21T18:45:23.149Z,8.60
2019-03-21T18:47:52.253Z,8.60
2019-03-21T18:50:21.315Z,8.70
2019-03-21T18:52:50.445Z,8.70
2019-03-21T18:55:19.573Z,8.70
2019-03-21T18:57:48.644Z,8.70
2019-03-21T19:00:21.684Z,8.70
2019-03-21T19:02:50.918Z,8.70
2019-03-21T19:05:20.131Z,8.80
2019-03-21T19:07:49.221Z,8.70
2019-03-21T19:10:20.777Z,8.80
2019-03-21T19:12:49.907Z,8.80
2019-03-21T19:15:19.174Z,8.80
2019-03-21T19:17:48.272Z,8.90
2019-03-21T19:20:18.512Z,8.90
2019-03-21T19:22:48.079Z,8.80
2019-03-21T19:25:19.682Z,8.70
2019-03-21T19:27:49.120Z,8.80
2019-03-21T19:30:20.061Z,8.80
2019-03-21T19:32:50.658Z,8.90
2019-03-21T19:35:19.790Z,8.80
2019-03-21T19:37:48.888Z,8.80
2019-03-21T19:40:21.613Z,8.70
2019-03-21T19:42:50.752Z,8.70
2019-03-21T19:45:20.074Z,8.60
2019-03-21T19:47:49.296Z,8.60
2019-03-21T19:50:20.164Z,8.50
2019-03-21T19:52:49.290Z,8.50
2019-03-21T19:55:25.874Z,8.40
2019-03-21T19:57:50.744Z,8.30
2019-03-21T20:00:23.817Z,8.40
2019-03-21T20:02:53.047Z,8.50
2019-03-21T20:05:22.151Z,8.40
2019-03-21T20:07:51.476Z,8.30
2019-03-21T20:10:26.040Z,8.30
2019-03-21T20:12:55.226Z,8.30
2019-03-21T20:15:24.391Z,8.20
2019-03-21T20:17:53.648Z,8.20
2019-03-21T20:20:22.765Z,8.20
2019-03-21T20:22:51.912Z,8.20
2019-03-21T20:25:21.110Z,8.10
2019-03-21T20:27:50.295Z,8.10
2019-03-21T20:30:22.944Z,8.10
2019-03-21T20:32:52.907Z,8.10
2019-03-21T20:35:22.049Z,8.00
2019-03-21T20:37:54.325Z,8.10
2019-03-21T20:40:23.602Z,8.00
2019-03-21T20:42:52.935Z,8.00
2019-03-21T20:45:22.109Z,7.90
2019-03-21T20:47:51.447Z,8.00
2019-03-21T20:50:22.646Z,8.00
2019-03-21T20:52:51.907Z,8.00
2019-03-21T20:55:22.482Z,8.00
2019-03-21T20:57:51.642Z,8.00
2019-03-21T21:00:23.175Z,8.10
2019-03-21T21:02:54.998Z,8.00
2019-03-21T21:05:24.210Z,7.90
2019-03-21T21:07:56.441Z,7.90
2019-03-21T21:10:25.707Z,7.80
2019-03-21T21:12:56.415Z,7.60
2019-03-21T21:15:25.633Z,7.80
2019-03-21T21:17:54.790Z,7.70
2019-03-21T21:20:24.268Z,7.80
2019-03-21T21:22:53.736Z,7.80
2019-03-21T21:25:23.213Z,7.70
2019-03-21T21:27:52.424Z,7.70
2019-03-21T21:30:22.659Z,7.70
2019-03-21T21:32:52.046Z,7.60
2019-03-21T21:35:21.715Z,7.60
2019-03-21T21:37:51.201Z,7.60
2019-03-21T21:40:20.650Z,7.60
2019-03-21T21:42:50.133Z,7.60
2019-03-21T21:45:19.764Z,7.60
2019-03-21T21:47:50.705Z,7.60
2019-03-21T21:50:20.430Z,7.70
2019-03-21T21:52:51.472Z,7.70
2019-03-21T21:55:20.805Z,7.70
2019-03-21T21:57:53.008Z,7.70
2019-03-21T22:00:22.915Z,7.70
2019-03-21T22:02:52.181Z,7.70
2019-03-21T22:05:24.153Z,7.70
2019-03-21T22:07:53.617Z,7.70
2019-03-21T22:10:23.222Z,7.80
2019-03-21T22:12:52.785Z,7.80
2019-03-21T22:15:26.768Z,7.80
2019-03-21T22:18:22.265Z,7.70
2019-03-21T22:20:50.109Z,7.80
2019-03-21T22:23:20.454Z,7.70
2019-03-21T22:25:53.054Z,7.70
2019-03-21T22:28:22.400Z,7.70
2019-03-21T22:30:54.977Z,7.50
2019-03-21T22:33:24.362Z,7.40
2019-03-21T22:36:08.614Z,7.50
2019-03-21T22:38:28.384Z,7.50
2019-03-21T22:40:59.414Z,7.50
2019-03-21T22:43:35.116Z,7.50
2019-03-21T22:46:12.058Z,7.40
2019-03-21T22:48:49.175Z,7.30
2019-03-21T22:51:17.375Z,7.40
2019-03-21T22:53:46.981Z,7.40
2019-03-21T22:56:18.172Z,7.50
2019-03-21T22:58:50.640Z,7.50
2019-03-21T23:01:24.924Z,7.50
2019-03-21T23:03:55.392Z,7.50
2019-03-21T23:06:25.003Z,7.40
2019-03-21T23:08:54.550Z,7.50
2019-03-21T23:11:24.268Z,7.40
2019-03-21T23:13:53.712Z,7.30
2019-03-21T23:16:23.235Z,7.30
2019-03-21T23:18:58.455Z,7.30
2019-03-21T23:21:46.917Z,7.30
2019-03-21T23:24:17.777Z,7.40
2019-03-21T23:26:52.929Z,7.40
2019-03-21T23:29:18.592Z,7.40
2019-03-21T23:31:47.753Z,7.40
2019-03-21T23:34:19.337Z,7.30
2019-03-21T23:36:48.696Z,7.10
2019-03-21T23:39:17.767Z,7.00
2019-03-21T23:41:46.830Z,7.00
2019-03-21T23:44:15.961Z,7.00
2019-03-21T23:46:45.035Z,7.10
2019-03-21T23:49:14.126Z,7.20
2019-03-21T23:51:43.252Z,7.40
2019-03-21T23:54:12.330Z,7.50
2019-03-21T23:56:41.489Z,7.50
2019-03-21T23:59:10.600Z,7.30
